createdAt,value
2023-05-12T00:01:49.390Z,90.30
2023-05-12T00:04:16.147Z,90.00
2023-05-12T00:11:37.057Z,90.00
2023-05-12T00:14:04.530Z,90.10
2023-05-12T00:16:31.195Z,90.30
2023-05-12T00:18:57.914Z,90.40
2023-05-12T00:21:24.582Z,90.50
2023-05-12T00:26:18.066Z,90.40
2023-05-12T00:28:44.761Z,90.70
2023-05-12T00:31:12.073Z,90.80
2023-05-12T00:33:38.655Z,90.80
2023-05-12T00:36:06.213Z,90.90
2023-05-12T00:38:33.625Z,91.30
2023-05-12T00:41:01.042Z,91.20
2023-05-12T00:43:27.729Z,90.80
2023-05-12T00:45:54.403Z,91.20
2023-05-12T00:48:21.743Z,91.00
2023-05-12T00:50:48.577Z,90.90
2023-05-12T00:53:15.266Z,91.00
2023-05-12T00:55:42.148Z,91.40
2023-05-12T00:58:08.810Z,90.80
2023-05-12T01:00:35.413Z,91.20
2023-05-12T01:03:03.019Z,91.10
2023-05-12T01:05:38.872Z,91.20
2023-05-12T01:08:06.268Z,91.10
2023-05-12T01:10:33.234Z,91.40
2023-05-12T01:12:59.822Z,91.20
2023-05-12T01:15:26.526Z,91.30
2023-05-12T01:17:57.699Z,91.40
2023-05-12T01:20:26.719Z,91.00
2023-05-12T01:22:54.926Z,91.00
2023-05-12T01:25:23.794Z,91.30
2023-05-12T01:27:53.031Z,91.20
2023-05-12T01:30:21.266Z,91.50
2023-05-12T01:32:48.204Z,91.40
2023-05-12T01:35:14.860Z,91.60
2023-05-12T01:40:09.131Z,91.50
2023-05-12T01:42:37.950Z,91.80
2023-05-12T01:45:06.197Z,91.60
2023-05-12T01:47:32.939Z,91.70
2023-05-12T01:49:59.526Z,92.00
2023-05-12T01:54:54.040Z,91.70
2023-05-12T01:59:47.614Z,91.90
2023-05-12T02:02:14.883Z,92.00
2023-05-12T02:04:42.487Z,92.10
2023-05-12T02:07:09.741Z,92.40
2023-05-12T02:09:36.354Z,93.00
2023-05-12T02:12:03.706Z,92.60
2023-05-12T02:14:30.268Z,92.50
2023-05-12T02:16:56.877Z,92.40
2023-05-12T02:19:24.165Z,93.00
2023-05-12T02:24:17.596Z,92.60
2023-05-12T02:29:11.287Z,92.50
2023-05-12T02:31:38.352Z,92.90
2023-05-12T02:36:34.159Z,93.00
2023-05-12T02:39:00.786Z,93.40
2023-05-12T02:41:27.491Z,93.60
2023-05-12T02:43:54.209Z,93.30
2023-05-12T02:46:20.772Z,93.70
2023-05-12T02:48:47.371Z,93.70
2023-05-12T02:51:13.975Z,93.70
2023-05-12T02:53:41.207Z,94.20
2023-05-12T02:56:07.881Z,94.20
2023-05-12T02:58:34.755Z,94.30
2023-05-12T03:01:10.196Z,94.30
2023-05-12T03:03:38.292Z,94.30
2023-05-12T03:06:05.457Z,94.50
2023-05-12T03:08:32.248Z,94.60
2023-05-12T03:10:59.647Z,94.70
2023-05-12T03:13:26.351Z,94.70
2023-05-12T03:18:20.510Z,94.60
2023-05-12T03:20:47.364Z,95.10
2023-05-12T03:23:13.939Z,95.10
2023-05-12T03:25:40.556Z,95.40
2023-05-12T03:28:07.766Z,95.40
2023-05-12T03:30:34.387Z,95.40
2023-05-12T03:33:00.974Z,95.20
2023-05-12T03:35:27.648Z,95.40
2023-05-12T03:37:54.262Z,95.40
2023-05-12T03:42:48.382Z,95.70
2023-05-12T03:45:15.787Z,96.20
2023-05-12T03:47:42.564Z,96.20
2023-05-12T03:50:10.306Z,96.20
2023-05-12T03:52:37.735Z,96.20
2023-05-12T03:55:05.641Z,96.40
2023-05-12T03:57:32.313Z,96.20
2023-05-12T03:59:58.933Z,96.40
2023-05-12T04:02:26.719Z,96.70
2023-05-12T04:04:53.507Z,96.40
2023-05-12T04:07:20.188Z,96.30
2023-05-12T04:09:46.853Z,96.60
2023-05-12T04:12:13.503Z,96.40
2023-05-12T04:14:43.265Z,96.20
2023-05-12T04:17:10.294Z,96.40
2023-05-12T04:19:38.481Z,96.10
2023-05-12T04:22:05.393Z,96.00
2023-05-12T04:24:32.100Z,95.90
2023-05-12T04:26:58.706Z,96.00
2023-05-12T04:31:54.493Z,95.60
2023-05-12T04:34:21.173Z,95.70
2023-05-12T04:36:48.457Z,95.80
2023-05-12T04:39:15.276Z,95.90
2023-05-12T04:41:41.891Z,95.80
2023-05-12T04:44:08.706Z,95.80
2023-05-12T04:46:35.414Z,95.70
2023-05-12T04:49:02.089Z,96.00
2023-05-12T04:51:28.721Z,95.70
2023-05-12T04:53:56.073Z,96.10
2023-05-12T04:56:22.867Z,95.60
2023-05-12T04:58:49.571Z,95.00
2023-05-12T05:01:16.266Z,95.10
2023-05-12T05:03:43.103Z,94.90
2023-05-12T05:06:09.830Z,94.80
2023-05-12T05:08:36.423Z,94.90
2023-05-12T05:11:03.691Z,94.70
2023-05-12T05:13:30.538Z,94.40
2023-05-12T05:15:57.279Z,95.40
2023-05-12T05:18:24.550Z,94.60
2023-05-12T05:20:57.922Z,94.10
2023-05-12T05:25:52.181Z,93.30
2023-05-12T05:28:21.725Z,93.00
2023-05-12T05:30:48.329Z,93.30
2023-05-12T05:33:15.070Z,92.80
2023-05-12T05:35:41.790Z,93.00
2023-05-12T05:40:48.845Z,92.00
2023-05-12T05:43:20.078Z,92.60
2023-05-12T05:45:48.606Z,93.00
2023-05-12T05:48:15.572Z,92.70
2023-05-12T05:50:42.284Z,92.00
2023-05-12T05:53:08.935Z,91.90
2023-05-12T05:55:35.618Z,91.60
2023-05-12T05:58:02.194Z,91.30
2023-05-12T06:00:29.523Z,91.50
2023-05-12T06:02:56.338Z,91.30
2023-05-12T06:05:23.237Z,91.10
2023-05-12T06:07:49.945Z,90.90
2023-05-12T06:10:16.842Z,90.80
2023-05-12T06:12:43.807Z,90.90
2023-05-12T06:15:11.085Z,89.80
2023-05-12T06:17:38.701Z,89.40
2023-05-12T06:20:06.659Z,89.50
2023-05-12T06:22:33.989Z,88.60
2023-05-12T06:25:01.162Z,88.80
2023-05-12T06:27:27.849Z,88.60
2023-05-12T06:29:54.564Z,87.70
2023-05-12T06:32:21.171Z,87.30
2023-05-12T06:34:48.492Z,88.00
2023-05-12T06:37:15.168Z,87.70
2023-05-12T06:39:41.791Z,87.50
2023-05-12T06:42:08.390Z,86.70
2023-05-12T06:44:35.019Z,86.80
2023-05-12T06:47:01.594Z,85.70
2023-05-12T06:49:30.481Z,85.50
2023-05-12T06:51:57.808Z,86.00
2023-05-12T06:54:24.345Z,86.30
2023-05-12T06:56:50.902Z,85.70
2023-05-12T06:59:18.499Z,86.00
2023-05-12T07:01:46.367Z,85.80
2023-05-12T07:04:13.505Z,85.70
2023-05-12T07:06:40.080Z,85.30
2023-05-12T07:09:10.634Z,85.50
2023-05-12T07:11:37.269Z,85.90
2023-05-12T07:14:03.961Z,84.90
2023-05-12T07:16:31.790Z,85.10
2023-05-12T07:18:58.462Z,85.00
2023-05-12T07:21:25.143Z,84.10
2023-05-12T07:23:51.727Z,85.70
2023-05-12T07:26:18.937Z,85.70
2023-05-12T07:28:45.495Z,85.90
2023-05-12T07:31:12.082Z,85.40
2023-05-12T07:33:38.725Z,85.30
2023-05-12T07:36:05.779Z,85.40
2023-05-12T07:38:32.335Z,85.30
2023-05-12T07:40:59.339Z,83.20
2023-05-12T07:43:26.659Z,83.10
2023-05-12T07:45:54.888Z,83.70
2023-05-12T07:48:21.663Z,83.40
2023-05-12T07:50:48.355Z,82.60
2023-05-12T07:53:14.958Z,82.30
2023-05-12T07:55:43.400Z,82.90
2023-05-12T07:58:10.907Z,81.30
2023-05-12T08:00:38.157Z,81.40
2023-05-12T08:03:05.029Z,81.60
2023-05-12T08:05:32.324Z,82.00
2023-05-12T08:07:58.911Z,82.10
2023-05-12T08:10:28.904Z,80.90
2023-05-12T08:12:55.800Z,80.80
2023-05-12T08:15:22.676Z,80.00
2023-05-12T08:17:50.216Z,79.70
2023-05-12T08:20:16.947Z,78.30
2023-05-12T08:22:43.959Z,78.20
2023-05-12T08:25:17.527Z,76.10
2023-05-12T08:27:44.796Z,73.80
2023-05-12T08:30:12.058Z,74.90
2023-05-12T08:32:38.780Z,74.80
2023-05-12T08:35:06.877Z,73.30
2023-05-12T08:37:34.739Z,73.50
2023-05-12T08:40:03.349Z,73.90
2023-05-12T08:42:36.055Z,73.90
2023-05-12T08:45:03.733Z,72.60
2023-05-12T08:47:32.564Z,73.30
2023-05-12T08:50:01.255Z,73.00
2023-05-12T08:52:29.976Z,72.60
2023-05-12T08:54:56.780Z,71.20
2023-05-12T08:57:24.148Z,72.00
2023-05-12T08:59:53.997Z,72.20
2023-05-12T09:02:22.507Z,74.00
2023-05-12T09:04:49.256Z,71.50
2023-05-12T09:07:16.183Z,71.50
2023-05-12T09:09:46.621Z,71.70
2023-05-12T09:12:18.038Z,69.30
2023-05-12T09:14:46.502Z,70.10
2023-05-12T09:17:13.587Z,69.80
2023-05-12T09:19:40.234Z,70.30
2023-05-12T09:22:08.807Z,70.80
2023-05-12T09:24:36.690Z,66.80
2023-05-12T09:27:04.468Z,65.10
2023-05-12T09:29:34.468Z,65.80
2023-05-12T09:32:06.733Z,66.00
2023-05-12T09:34:34.982Z,65.00
2023-05-12T09:37:04.376Z,62.70
2023-05-12T09:39:31.198Z,62.20
2023-05-12T09:41:57.836Z,63.90
2023-05-12T09:44:26.114Z,63.90
2023-05-12T09:46:52.962Z,63.70
2023-05-12T09:49:19.867Z,64.40
2023-05-12T09:51:46.796Z,64.30
2023-05-12T09:54:23.781Z,64.30
2023-05-12T09:56:51.509Z,64.20
2023-05-12T09:59:20.490Z,63.70
2023-05-12T10:01:48.470Z,63.40
2023-05-12T10:04:15.455Z,64.00
2023-05-12T10:06:42.473Z,63.30
2023-05-12T10:09:15.850Z,63.80
2023-05-12T10:11:43.818Z,63.40
2023-05-12T10:14:10.934Z,64.20
2023-05-12T10:16:40.424Z,64.10
2023-05-12T10:19:10.144Z,64.60
2023-05-12T10:21:37.736Z,64.90
2023-05-12T10:24:04.697Z,64.20
2023-05-12T10:26:32.313Z,62.10
2023-05-12T10:28:59.561Z,63.40
2023-05-12T10:31:27.150Z,63.60
2023-05-12T10:33:57.884Z,63.90
2023-05-12T10:36:25.594Z,63.10
2023-05-12T10:38:52.218Z,64.20
2023-05-12T10:41:30.247Z,64.40
2023-05-12T10:44:01.130Z,63.40
2023-05-12T10:46:27.991Z,62.80
2023-05-12T10:48:56.149Z,63.00
2023-05-12T10:51:25.771Z,63.50
2023-05-12T10:53:57.009Z,63.40
2023-05-12T10:56:25.805Z,64.10
2023-05-12T10:59:11.244Z,64.30
2023-05-12T11:01:39.901Z,61.70
2023-05-12T11:04:15.153Z,63.10
2023-05-12T11:06:44.835Z,64.40
2023-05-12T11:09:13.253Z,62.60
2023-05-12T11:11:40.560Z,62.90
2023-05-12T11:14:07.947Z,62.60
2023-05-12T11:16:40.767Z,63.00
2023-05-12T11:19:07.449Z,62.50
2023-05-12T11:21:34.541Z,61.30
2023-05-12T11:24:02.655Z,60.00
2023-05-12T11:26:30.396Z,60.70
2023-05-12T11:28:57.690Z,60.50
2023-05-12T11:31:24.725Z,61.80
2023-05-12T11:36:36.768Z,60.60
2023-05-12T11:39:05.380Z,61.00
2023-05-12T11:41:33.029Z,61.30
2023-05-12T11:43:59.619Z,60.90
2023-05-12T11:46:27.225Z,61.60
2023-05-12T11:48:57.822Z,60.80
2023-05-12T11:51:25.087Z,59.30
2023-05-12T11:53:52.703Z,58.40
2023-05-12T11:56:19.926Z,58.10
2023-05-12T11:58:54.402Z,58.40
2023-05-12T12:01:21.075Z,59.20
2023-05-12T12:03:49.338Z,58.30
2023-05-12T12:06:16.298Z,59.30
2023-05-12T12:08:50.541Z,59.90
2023-05-12T12:11:18.217Z,58.30
2023-05-12T12:13:48.345Z,59.00
2023-05-12T12:16:15.776Z,58.00
2023-05-12T12:18:42.548Z,56.60
2023-05-12T12:21:09.159Z,56.80
2023-05-12T12:23:47.697Z,57.70
2023-05-12T12:26:17.024Z,57.80
2023-05-12T12:28:45.314Z,58.50
2023-05-12T12:31:12.290Z,58.50
2023-05-12T12:33:39.665Z,59.60
2023-05-12T12:36:06.636Z,57.40
2023-05-12T12:38:33.186Z,55.90
2023-05-12T12:40:59.966Z,56.90
2023-05-12T12:43:26.651Z,56.50
2023-05-12T12:45:54.088Z,57.00
2023-05-12T12:48:20.704Z,56.20
2023-05-12T12:50:47.984Z,55.70
2023-05-12T12:53:14.557Z,56.50
2023-05-12T12:55:41.307Z,57.70
2023-05-12T12:58:08.385Z,57.50
2023-05-12T13:00:35.677Z,56.20
2023-05-12T13:03:02.405Z,55.00
2023-05-12T13:05:29.034Z,55.00
2023-05-12T13:07:56.236Z,54.60
2023-05-12T13:10:22.818Z,54.00
2023-05-12T13:12:49.509Z,53.20
2023-05-12T13:15:19.393Z,53.40
2023-05-12T13:17:46.369Z,53.30
2023-05-12T13:20:13.589Z,53.20
2023-05-12T13:22:40.273Z,52.00
2023-05-12T13:25:08.275Z,53.70
2023-05-12T13:27:34.959Z,52.70
2023-05-12T13:30:03.880Z,52.30
2023-05-12T13:32:30.661Z,52.10
2023-05-12T13:34:57.253Z,52.10
2023-05-12T13:37:23.961Z,52.10
2023-05-12T13:39:50.731Z,52.60
2023-05-12T13:42:18.007Z,52.70
2023-05-12T13:44:44.810Z,52.00
2023-05-12T13:47:11.353Z,52.60
2023-05-12T13:49:38.371Z,53.30
2023-05-12T13:52:05.708Z,53.80
2023-05-12T13:54:32.531Z,51.70
2023-05-12T13:56:59.241Z,52.10
2023-05-12T13:59:26.807Z,51.20
2023-05-12T14:01:54.217Z,51.80
2023-05-12T14:04:20.776Z,51.90
2023-05-12T14:06:47.601Z,49.90
2023-05-12T14:09:14.219Z,45.60
2023-05-12T14:11:40.798Z,42.90
2023-05-12T14:14:07.482Z,42.20
2023-05-12T14:16:34.775Z,41.00
2023-05-12T14:19:01.415Z,40.30
2023-05-12T14:21:28.271Z,39.50
2023-05-12T14:23:54.858Z,39.00
2023-05-12T14:26:21.807Z,37.30
2023-05-12T14:28:48.586Z,37.20
2023-05-12T14:31:15.493Z,37.90
2023-05-12T14:33:42.831Z,38.10
2023-05-12T14:36:10.049Z,37.60
2023-05-12T14:38:37.194Z,36.70
2023-05-12T14:41:03.782Z,36.70
2023-05-12T14:43:30.397Z,36.40
2023-05-12T14:45:57.075Z,36.40
2023-05-12T14:48:25.384Z,36.60
2023-05-12T14:50:52.892Z,35.80
2023-05-12T14:53:19.523Z,35.60
2023-05-12T14:55:46.733Z,36.00
2023-05-12T14:58:13.698Z,36.40
2023-05-12T15:00:40.368Z,35.70
2023-05-12T15:03:07.226Z,35.90
2023-05-12T15:05:52.713Z,35.90
2023-05-12T15:08:20.989Z,36.00
2023-05-12T15:10:47.862Z,35.60
2023-05-12T15:13:17.023Z,35.60
2023-05-12T15:15:44.027Z,35.40
2023-05-12T15:18:10.729Z,35.30
2023-05-12T15:20:37.822Z,35.40
2023-05-12T15:23:04.549Z,35.30
2023-05-12T15:25:32.171Z,35.00
2023-05-12T15:27:58.756Z,35.40
2023-05-12T15:30:25.413Z,35.10
2023-05-12T15:32:52.074Z,35.30
2023-05-12T15:35:18.737Z,35.50
2023-05-12T15:37:45.384Z,37.40
2023-05-12T15:40:13.171Z,38.30
2023-05-12T15:42:41.194Z,38.40
2023-05-12T15:45:08.785Z,39.20
2023-05-12T15:47:35.757Z,38.80
2023-05-12T15:50:03.005Z,38.90
2023-05-12T15:52:29.807Z,39.10
2023-05-12T15:54:56.541Z,40.40
2023-05-12T15:57:23.103Z,42.30
2023-05-12T15:59:51.977Z,43.80
2023-05-12T16:02:18.729Z,44.80
2023-05-12T16:04:45.402Z,44.00
2023-05-12T16:07:11.984Z,42.50
2023-05-12T16:09:38.536Z,41.40
2023-05-12T16:12:07.374Z,40.20
2023-05-12T16:14:35.282Z,39.60
2023-05-12T16:17:05.321Z,39.00
2023-05-12T16:19:31.945Z,39.00
2023-05-12T16:21:59.312Z,39.00
2023-05-12T16:24:27.891Z,38.80
2023-05-12T16:26:54.700Z,39.30
2023-05-12T16:29:21.710Z,39.40
2023-05-12T16:31:48.497Z,41.20
2023-05-12T16:34:16.625Z,42.80
2023-05-12T16:36:43.265Z,45.30
2023-05-12T16:39:09.893Z,46.90
2023-05-12T16:41:36.768Z,48.80
2023-05-12T16:44:03.494Z,48.90
2023-05-12T16:46:31.954Z,49.70
2023-05-12T16:48:59.296Z,50.60
2023-05-12T16:51:29.674Z,52.10
2023-05-12T16:53:56.642Z,52.60
2023-05-12T16:56:23.281Z,52.90
2023-05-12T16:58:51.004Z,53.60
2023-05-12T17:01:17.709Z,53.60
2023-05-12T17:03:44.801Z,54.60
2023-05-12T17:06:12.424Z,54.30
2023-05-12T17:08:40.112Z,53.80
2023-05-12T17:11:09.062Z,53.90
2023-05-12T17:13:36.759Z,54.30
2023-05-12T17:16:03.992Z,54.50
2023-05-12T17:18:30.835Z,54.50
2023-05-12T17:20:58.217Z,54.90
2023-05-12T17:23:24.868Z,55.30
2023-05-12T17:25:52.742Z,54.90
2023-05-12T17:28:20.399Z,55.40
2023-05-12T17:30:47.838Z,55.50
2023-05-12T17:33:14.964Z,55.70
2023-05-12T17:35:41.591Z,55.80
2023-05-12T17:38:08.314Z,56.20
2023-05-12T17:40:34.975Z,56.40
2023-05-12T17:43:02.451Z,56.10
2023-05-12T17:45:29.345Z,55.90
2023-05-12T17:47:56.270Z,56.00
2023-05-12T17:50:22.985Z,56.30
2023-05-12T17:52:49.736Z,56.60
2023-05-12T17:55:16.779Z,56.80
2023-05-12T17:57:43.386Z,57.30
2023-05-12T18:00:12.280Z,56.90
2023-05-12T18:02:40.384Z,57.40
2023-05-12T18:05:08.441Z,56.70
2023-05-12T18:07:35.107Z,57.50
2023-05-12T18:10:01.996Z,57.50
2023-05-12T18:12:28.588Z,57.80
2023-05-12T18:14:56.042Z,57.30
2023-05-12T18:17:23.592Z,57.60
2023-05-12T18:19:50.359Z,57.60
2023-05-12T18:22:17.698Z,57.90
2023-05-12T18:24:44.623Z,58.50
2023-05-12T18:27:11.501Z,57.80
2023-05-12T18:29:38.466Z,57.80
2023-05-12T18:32:05.403Z,58.70
2023-05-12T18:34:32.677Z,58.30
2023-05-12T18:36:59.279Z,58.80
2023-05-12T18:39:26.141Z,58.40
2023-05-12T18:41:53.778Z,59.60
2023-05-12T18:44:20.386Z,58.80
2023-05-12T18:46:47.060Z,59.00
2023-05-12T18:49:13.691Z,59.50
2023-05-12T18:51:40.926Z,59.70
2023-05-12T18:54:07.509Z,59.70
2023-05-12T18:56:34.167Z,60.10
2023-05-12T18:59:00.882Z,59.90
2023-05-12T19:01:27.933Z,60.10
2023-05-12T19:03:54.728Z,60.40
2023-05-12T19:06:21.509Z,60.70
2023-05-12T19:08:48.783Z,61.00
2023-05-12T19:11:15.586Z,61.30
2023-05-12T19:13:44.498Z,60.90
2023-05-12T19:16:11.360Z,61.50
2023-05-12T19:18:38.016Z,62.00
2023-05-12T19:21:04.637Z,61.80
2023-05-12T19:23:31.291Z,62.30
2023-05-12T19:25:58.800Z,62.40
2023-05-12T19:28:25.863Z,62.80
2023-05-12T19:30:54.140Z,63.30
2023-05-12T19:33:20.957Z,63.90
2023-05-12T19:35:47.750Z,63.90
2023-05-12T19:38:14.502Z,64.40
2023-05-12T19:40:41.142Z,64.40
2023-05-12T19:43:09.930Z,65.30
2023-05-12T19:45:36.611Z,65.10
2023-05-12T19:48:03.389Z,65.10
2023-05-12T19:50:30.157Z,65.30
2023-05-12T19:52:56.785Z,65.50
2023-05-12T19:55:23.634Z,65.60
2023-05-12T19:57:51.197Z,66.00
2023-05-12T20:00:21.392Z,66.10
2023-05-12T20:02:48.336Z,66.90
2023-05-12T20:05:15.089Z,66.40
2023-05-12T20:07:42.329Z,66.60
2023-05-12T20:10:09.759Z,66.70
2023-05-12T20:12:37.247Z,66.70
2023-05-12T20:15:06.124Z,66.90
2023-05-12T20:17:33.445Z,67.50
2023-05-12T20:20:03.343Z,67.90
2023-05-12T20:22:30.080Z,67.80
2023-05-12T20:24:58.974Z,68.10
2023-05-12T20:27:25.653Z,68.70
2023-05-12T20:29:52.369Z,69.30
2023-05-12T20:32:19.113Z,68.90
2023-05-12T20:34:46.818Z,69.30
2023-05-12T20:37:14.327Z,68.90
2023-05-12T20:39:41.313Z,68.80
2023-05-12T20:42:09.432Z,68.50
2023-05-12T20:44:36.677Z,69.20
2023-05-12T20:47:03.505Z,69.20
2023-05-12T20:49:30.238Z,69.50
2023-05-12T20:51:57.607Z,69.70
2023-05-12T20:54:24.431Z,69.80
2023-05-12T20:56:51.087Z,69.90
2023-05-12T20:59:17.894Z,70.50
2023-05-12T21:01:44.743Z,70.90
2023-05-12T21:04:11.508Z,71.00
2023-05-12T21:06:38.272Z,71.00
2023-05-12T21:09:05.672Z,71.20
2023-05-12T21:11:32.397Z,71.30
2023-05-12T21:13:59.116Z,71.70
2023-05-12T21:16:25.921Z,71.20
2023-05-12T21:18:52.774Z,71.10
2023-05-12T21:21:19.442Z,71.60
2023-05-12T21:23:46.072Z,71.50
2023-05-12T21:26:13.438Z,71.50
2023-05-12T21:28:40.111Z,71.50
2023-05-12T21:31:06.907Z,71.70
2023-05-12T21:33:33.669Z,71.70
2023-05-12T21:36:00.344Z,72.10
2023-05-12T21:38:27.016Z,72.00
2023-05-12T21:40:55.566Z,72.30
2023-05-12T21:43:22.959Z,72.50
2023-05-12T21:45:49.741Z,72.50
2023-05-12T21:48:16.934Z,72.70
2023-05-12T21:50:43.659Z,73.10
2023-05-12T21:53:10.323Z,73.10
2023-05-12T21:55:37.010Z,73.60
2023-05-12T21:58:03.675Z,73.80
2023-05-12T22:00:31.071Z,74.20
2023-05-12T22:02:57.748Z,74.60
2023-05-12T22:05:24.509Z,74.50
2023-05-12T22:07:51.151Z,73.70
2023-05-12T22:10:18.046Z,74.80
2023-05-12T22:12:45.248Z,74.80
2023-05-12T22:15:12.108Z,75.20
2023-05-12T22:17:39.660Z,75.40
2023-05-12T22:20:08.458Z,75.10
2023-05-12T22:22:35.159Z,75.20
2023-05-12T22:25:03.011Z,75.40
2023-05-12T22:27:29.735Z,75.90
2023-05-12T22:29:56.445Z,75.70
2023-05-12T22:32:23.334Z,75.80
2023-05-12T22:34:53.074Z,76.00
2023-05-12T22:37:20.055Z,75.90
2023-05-12T22:39:46.804Z,76.40
2023-05-12T22:42:13.897Z,76.20
2023-05-12T22:44:40.563Z,76.30
2023-05-12T22:47:07.432Z,76.50
2023-05-12T22:49:34.151Z,76.20
2023-05-12T22:52:01.536Z,76.30
2023-05-12T22:54:28.212Z,76.60
2023-05-12T22:56:55.274Z,76.70
2023-05-12T22:59:21.941Z,76.90
2023-05-12T23:01:48.726Z,77.80
2023-05-12T23:04:15.514Z,76.70
2023-05-12T23:06:42.248Z,77.50
2023-05-12T23:09:09.565Z,77.70
2023-05-12T23:11:36.364Z,77.50
2023-05-12T23:14:03.025Z,77.20
2023-05-12T23:16:29.798Z,77.10
2023-05-12T23:18:56.509Z,77.20
2023-05-12T23:21:23.236Z,77.10
2023-05-12T23:23:49.938Z,77.80
2023-05-12T23:26:17.402Z,77.60
2023-05-12T23:28:45.212Z,78.10
2023-05-12T23:31:12.029Z,77.80
2023-05-12T23:33:38.761Z,78.00
2023-05-12T23:36:06.057Z,78.10
2023-05-12T23:38:32.695Z,78.00
2023-05-12T23:40:59.455Z,78.70
2023-05-12T23:43:27.317Z,78.70
2023-05-12T23:45:54.117Z,78.40
2023-05-12T23:48:20.874Z,78.60
2023-05-12T23:50:47.618Z,78.40
2023-05-12T23:53:14.236Z,78.60
2023-05-12T23:55:40.965Z,79.00
2023-05-12T23:58:09.965Z,79.80
